Flight Track Log - Related Links

Times and Time Zones

All times are in EDT time to prevent confusion due to time zone crossing. See the WIG7413 flight status page for this flight to view local times or setup timezone preferences in your user account.


Time Position Orientation Groundspeed Altitude Reporting Facility
EDT Latitude Longitude Course Direction KTS MPH feet Rate Location/Type
Thu 10:21:02 PM 42.7611 -73.8061 359° North 92 106 900  Level Boston Center
Thu 10:21:32 PM 42.7736 -73.8064 359° North 90 104 1,400 791 Climbing Boston Center
Thu 10:22:33 PM 42.7822 -73.7808 65° Northeast 108 124 2,100 689 Climbing Boston Center
Thu 10:23:34 PM 42.7722 -73.7356 107° East 135 155 2,800 694 Climbing Boston Center
Thu 10:24:34 PM 42.7350 -73.7264 170° South 155 178 3,500 744 Climbing Boston Center
Thu 10:25:35 PM 42.6972 -73.7536 208° Southwest 144 166 4,300 689 Climbing Boston Center
Thu 10:26:36 PM 42.6656 -73.7814 213° Southwest 140 161 4,900 614 Climbing Boston Center
Thu 10:27:42 PM 42.6297 -73.8172 216° Southwest 142 163 5,600 709 Climbing Boston Center
Thu 10:28:43 PM 42.5981 -73.8447 213° Southwest 136 157 6,400 787 Climbing Boston Center
Thu 10:29:44 PM 42.5664 -73.8750 215° Southwest 133 153 7,200 744 Climbing Boston Center
Thu 10:30:44 PM 42.5369 -73.8997 212° Southwest 134 154 7,900 397 Climbing Boston Center
Thu 10:31:45 PM 42.5011 -73.9325 214° Southwest 145 167 8,000 50 Climbing Boston Center
Thu 10:32:45 PM 42.4611 -73.9656 211° Southwest 168 193 8,000  Level Boston Center
Thu 10:33:46 PM 42.4294 -73.9983 217° Southwest 157 181 8,000  Level Boston Center
Thu 10:34:47 PM 42.3914 -74.0311 212° Southwest 151 174 8,000  Level Boston Center
Thu 10:35:30 PM 42.3703 -74.0503 214° Southwest 155 178 8,000 58 Level Boston Center
Thu 10:36:30 PM 42.3300 -74.0858 213° Southwest 155 178 8,100 50 Climbing Boston Center
Thu 10:37:30 PM 42.2961 -74.1242 220° Southwest 161 185 8,100  Level Boston Center
Thu 10:38:30 PM 42.2644 -74.1542 215° Southwest 161 185 8,100  Level Boston Center
Thu 10:39:30 PM 42.2264 -74.1869 213° Southwest 155 178 8,100  Level Boston Center
Thu 10:40:30 PM 42.1908 -74.2083 204° Southwest 155 178 8,100  Level Boston Center
Thu 10:41:30 PM 42.1467 -74.2294 200° South 155 178 8,100  Level Boston Center
Thu 10:42:30 PM 42.1108 -74.2481 201° Southwest 155 178 8,100 -100 Level Boston Center
Thu 10:43:30 PM 42.0689 -74.2692 200° South 155 178 7,900 -300 Descending Boston Center
Thu 10:44:30 PM 42.0311 -74.2903 203° Southwest 155 178 7,500 -400 Descending Boston Center
Thu 10:45:30 PM 41.9847 -74.3114 199° South 160 184 7,100 -250 Descending Boston Center
Thu 10:46:30 PM 41.9469 -74.3297 200° South 165 190 7,000 -50 Descending Boston Center
Thu 10:47:30 PM 41.9028 -74.3508 200° South 159 183 7,000  Level Boston Center
Thu 10:48:42 PM 41.8567 -74.3717 199° South 152 175 7,000  Level Boston Center
Thu 10:49:42 PM 41.8167 -74.3928 201° Southwest 157 181 7,000  Level Boston Center
Thu 10:50:42 PM 41.7789 -74.4111 200° South 151 174 7,000  Level Boston Center
Thu 10:51:42 PM 41.7408 -74.4322 202° Southwest 151 174 7,000  Level Boston Center
Thu 10:52:42 PM 41.7011 -74.4503 199° South 151 174 7,000  Level Boston Center
Thu 10:53:42 PM 41.6631 -74.4686 200° South 151 174 7,000  Level Boston Center
Thu 10:54:42 PM 41.6233 -74.4869 199° South 151 174 7,000 -150 Level Boston Center
Thu 10:55:42 PM 41.5894 -74.5053 202° Southwest 157 181 6,700 -400 Descending Boston Center
Thu 10:56:42 PM 41.5433 -74.5286 201° Southwest 157 181 6,200 -210 Descending Boston Center
Thu 10:59:02 PM 41.4500 -74.5667 197° South 155 178 6,000 -60 Descending New York TRACON
Thu 11:00:02 PM 41.4000 -74.6000 207° Southwest 150 173 6,000  Level New York TRACON
Thu 11:01:02 PM 41.3667 -74.6167 201° Southwest 150 173 6,000  Level New York TRACON
Thu 11:02:08 PM 41.3167 -74.6333 194° South 152 175 6,000  Level New York TRACON
Thu 11:03:08 PM 41.2833 -74.6333 180° South 144 166 6,000  Level New York TRACON
Thu 11:04:08 PM 41.2500 -74.6500 201° Southwest 143 165 6,000  Level New York TRACON
Thu 11:05:08 PM 41.2000 -74.6667 194° South 150 173 6,000 -200 Level New York TRACON
Thu 11:06:08 PM 41.1667 -74.6667 180° South 163 188 5,600 -368 Descending New York TRACON
Thu 11:07:02 PM 41.1167 -74.6667 180° South 169 194 5,300 -300 Descending New York TRACON
Thu 11:08:08 PM 41.0667 -74.6667 180° South 168 193 5,000 -143 Descending New York TRACON
Thu 11:09:08 PM 41.0333 -74.6500 159° South 159 183 5,000  Level New York TRACON
Thu 11:10:08 PM 40.9833 -74.6500 180° South 155 178 5,000  Level New York TRACON
Thu 11:11:08 PM 40.9333 -74.6333 166° South 155 178 5,000  Level New York TRACON
Thu 11:12:14 PM 40.9000 -74.6167 159° South 159 183 5,000  Level New York TRACON
Thu 11:13:20 PM 40.8500 -74.5833 153° Southeast 156 180 5,000  Level New York TRACON
Thu 11:14:14 PM 40.8167 -74.5667 159° South 154 177 5,000  Level New York TRACON
Thu 11:15:08 PM 40.7833 -74.5500 159° South 155 178 5,000  Level New York TRACON
Thu 11:16:08 PM 40.7500 -74.5333 159° South 156 180 5,000  Level New York TRACON
Thu 11:17:08 PM 40.7000 -74.5167 166° South 155 178 5,000  Level New York TRACON
Thu 11:18:08 PM 40.6667 -74.4833 143° Southeast 154 177 5,000 -50 Level New York TRACON
Thu 11:19:08 PM 40.6167 -74.4667 166° South 153 176 4,900 -200 Descending New York TRACON
Thu 11:20:08 PM 40.5833 -74.4500 159° South 164 189 4,600 -368 Descending New York TRACON
Thu 11:21:02 PM 40.5500 -74.4167 143° Southeast 169 194 4,200 -316 Descending New York TRACON
Thu 11:22:02 PM 40.5167 -74.3667 131° Southeast 155 178 4,000 -100 Descending New York TRACON
Thu 11:23:02 PM 40.5167 -74.3167 90° East 151 174 4,000 -300 Level New York TRACON
Thu 11:24:02 PM 40.5167 -74.2667 90° East 162 186 3,400 -550 Descending New York TRACON
Thu 11:25:02 PM 40.5500 -74.2500 21° North 146 168 2,900 -600 Descending New York TRACON
Thu 11:26:02 PM 40.5833 -74.2333 21° North 148 170 2,200 -789 Descending New York TRACON
Thu 11:26:56 PM 40.6167 -74.2167 21° North 132 152 1,400 -800 Descending New York TRACON
Thu 11:28:02 PM 40.6500 -74.1833 37° Northeast 118 136 600 -727 Descending New York TRACON
Thu 11:30:00 PM 40.6833 -74.1667 21° North  Level FlightAware Approximate

Login

Don't have an account? Register now (free) for customized features, flight alerts, and more!